Cross Lake, Canada
Current Conditions -  °F | °C
As of 5:00 AM on Wednesday 26 Nov 2014 (Local Time) from CYNE Reporting Station
Clear Clear  
Wind Chill: -33°   Ceiling: Unl
Heat Index: -20°   Visibility: 9mi
Dew Point: -26°   Wind: 5mph
Humidity: 76%   Direction: 310°NW
Pressure: 30.36"   Gusts: NA
Location:  54.62°N, 97.78°W
Report Text: CYNE 261100Z AUTO 31004KT 9SM CLR M29/M32 A3036 RMK SLP315
Loading
Personal Weather Stations






























Interactive Weather Map New forecast layout! Learn more

10-Day Weather Forecast

Advertisements
Track Severe Weather on mobile